createdAt,value
2022-08-17T00:00:44.062Z,80.40
2022-08-17T00:03:13.590Z,77.70
2022-08-17T00:05:44.579Z,78.30
2022-08-17T00:08:14.372Z,82.10
2022-08-17T00:10:43.992Z,84.60
2022-08-17T00:13:15.987Z,86.10
2022-08-17T00:15:44.920Z,87.10
2022-08-17T00:19:01.411Z,88.10
2022-08-17T00:21:05.270Z,88.90
2022-08-17T00:23:44.264Z,89.60
2022-08-17T00:26:44.303Z,90.00
2022-08-17T00:29:08.345Z,90.10
2022-08-17T00:31:37.618Z,90.00
2022-08-17T00:34:08.876Z,82.60
2022-08-17T00:36:37.254Z,79.30
2022-08-17T00:39:06.175Z,76.60
2022-08-17T00:41:34.669Z,80.30
2022-08-17T00:44:03.682Z,83.20
2022-08-17T00:46:37.409Z,85.10
2022-08-17T00:49:06.793Z,85.40
2022-08-17T00:51:56.326Z,86.30
2022-08-17T00:54:29.537Z,87.10
2022-08-17T00:57:07.763Z,88.00
2022-08-17T00:59:39.606Z,88.40
2022-08-17T01:02:10.596Z,88.80
2022-08-17T01:04:39.341Z,89.10
2022-08-17T01:07:07.690Z,89.40
2022-08-17T01:09:36.073Z,89.70
2022-08-17T01:12:07.864Z,89.90
2022-08-17T01:14:37.697Z,90.10
2022-08-17T01:17:05.866Z,84.60
2022-08-17T01:19:38.626Z,80.10
2022-08-17T01:22:09.947Z,77.10
2022-08-17T01:24:41.328Z,76.20
2022-08-17T01:27:11.530Z,80.80
2022-08-17T01:29:43.854Z,82.80
2022-08-17T01:32:12.891Z,84.20
2022-08-17T01:34:42.903Z,85.20
2022-08-17T01:37:14.172Z,86.10
2022-08-17T01:40:00.496Z,86.80
2022-08-17T01:42:43.406Z,87.30
2022-08-17T01:45:41.688Z,88.20
2022-08-17T01:48:10.663Z,88.90
2022-08-17T01:50:42.210Z,89.30
2022-08-17T01:53:18.677Z,89.70
2022-08-17T01:55:57.749Z,90.10
2022-08-17T01:58:26.165Z,90.00
2022-08-17T02:01:00.947Z,83.80
2022-08-17T02:03:30.670Z,79.60
2022-08-17T02:05:59.205Z,76.90
2022-08-17T02:08:38.842Z,78.30
2022-08-17T02:11:19.356Z,82.20
2022-08-17T02:13:55.114Z,83.90
2022-08-17T02:16:36.954Z,85.20
2022-08-17T02:19:08.843Z,85.90
2022-08-17T02:21:38.839Z,86.60
2022-08-17T02:24:12.144Z,87.30
2022-08-17T02:26:40.497Z,87.90
2022-08-17T02:29:08.690Z,88.30
2022-08-17T02:31:37.031Z,88.80
2022-08-17T02:34:05.463Z,89.10
2022-08-17T02:36:35.504Z,89.50
2022-08-17T02:39:06.668Z,89.80
2022-08-17T02:41:35.148Z,90.00
2022-08-17T02:44:03.983Z,86.20
2022-08-17T02:46:32.523Z,80.10
2022-08-17T02:49:01.182Z,76.90
2022-08-17T02:51:29.223Z,78.20
2022-08-17T02:54:35.772Z,82.20
2022-08-17T02:56:45.703Z,83.90
2022-08-17T02:59:14.079Z,85.00
2022-08-17T03:01:42.470Z,85.90
2022-08-17T03:04:10.731Z,86.70
2022-08-17T03:06:39.076Z,87.40
2022-08-17T03:09:07.312Z,87.90
2022-08-17T03:11:35.518Z,88.30
2022-08-17T03:14:03.707Z,88.80
2022-08-17T03:16:31.991Z,89.20
2022-08-17T03:19:01.527Z,89.60
2022-08-17T03:21:29.953Z,89.80
2022-08-17T03:23:58.175Z,90.00
2022-08-17T03:26:29.799Z,89.50
2022-08-17T03:28:58.255Z,81.70
2022-08-17T03:31:26.435Z,78.30
2022-08-17T03:33:54.765Z,76.20
2022-08-17T03:36:22.845Z,80.40
2022-08-17T03:38:51.145Z,83.00
2022-08-17T03:41:20.481Z,84.30
2022-08-17T03:43:48.675Z,85.60
2022-08-17T03:46:27.332Z,86.50
2022-08-17T03:48:59.657Z,87.10
2022-08-17T03:51:27.945Z,87.80
2022-08-17T03:54:01.911Z,88.50
2022-08-17T03:56:30.214Z,88.80
2022-08-17T03:58:58.397Z,89.30
2022-08-17T04:01:26.803Z,89.70
2022-08-17T04:03:54.959Z,90.00
2022-08-17T04:06:23.233Z,90.10
2022-08-17T04:08:51.376Z,90.20
2022-08-17T04:11:19.669Z,84.30
2022-08-17T04:13:47.754Z,79.80
2022-08-17T04:16:16.025Z,76.90
2022-08-17T04:18:44.399Z,77.50
2022-08-17T04:21:13.265Z,81.70
2022-08-17T04:23:44.875Z,83.40
2022-08-17T04:26:52.892Z,84.70
2022-08-17T04:29:05.254Z,85.60
2022-08-17T04:31:33.572Z,86.70
2022-08-17T04:34:02.142Z,87.30
2022-08-17T04:36:31.282Z,88.00
2022-08-17T04:38:59.845Z,88.50
2022-08-17T04:41:29.367Z,89.20
2022-08-17T04:43:58.215Z,89.40
2022-08-17T04:46:31.350Z,89.70
2022-08-17T04:49:01.047Z,90.00
2022-08-17T04:51:38.524Z,90.10
2022-08-17T04:54:23.443Z,85.70
2022-08-17T04:56:53.528Z,79.80
2022-08-17T04:59:23.276Z,77.30
2022-08-17T05:01:52.532Z,78.80
2022-08-17T05:04:34.089Z,82.50
2022-08-17T05:07:03.843Z,83.90
2022-08-17T05:09:31.917Z,85.00
2022-08-17T05:12:03.859Z,85.80
2022-08-17T05:14:32.456Z,86.70
2022-08-17T05:17:04.142Z,87.30
2022-08-17T05:19:37.661Z,87.90
2022-08-17T05:22:06.601Z,88.40
2022-08-17T05:24:39.004Z,88.70
2022-08-17T05:27:18.927Z,89.10
2022-08-17T05:29:47.589Z,90.00
2022-08-17T05:32:47.896Z,90.00
2022-08-17T05:35:04.512Z,90.10
2022-08-17T05:37:32.804Z,90.30
2022-08-17T05:40:01.178Z,85.20
2022-08-17T05:42:29.433Z,80.00
2022-08-17T05:45:00.791Z,77.40
2022-08-17T05:47:30.891Z,79.00
2022-08-17T05:50:00.035Z,82.70
2022-08-17T05:52:35.959Z,84.30
2022-08-17T05:55:16.581Z,85.10
2022-08-17T05:57:59.484Z,86.10
2022-08-17T06:00:37.768Z,86.90
2022-08-17T06:03:38.211Z,87.60
2022-08-17T06:06:43.487Z,88.10
2022-08-17T06:09:35.764Z,88.70
2022-08-17T06:12:28.778Z,89.10
2022-08-17T06:15:12.462Z,89.70
2022-08-17T06:17:42.339Z,89.70
2022-08-17T06:20:14.768Z,86.50
2022-08-17T06:22:48.218Z,80.60
2022-08-17T06:25:21.886Z,77.10
2022-08-17T06:28:03.455Z,77.80
2022-08-17T06:31:00.739Z,82.20
2022-08-17T06:33:40.530Z,83.70
2022-08-17T06:36:24.139Z,84.80
2022-08-17T06:39:19.084Z,85.60
2022-08-17T06:43:05.150Z,86.30
2022-08-17T06:45:31.463Z,86.90
2022-08-17T06:48:15.878Z,87.70
2022-08-17T06:51:10.482Z,88.20
2022-08-17T06:53:45.075Z,88.70
2022-08-17T06:56:22.085Z,89.30
2022-08-17T06:58:51.285Z,89.70
2022-08-17T07:01:24.319Z,90.10
2022-08-17T07:04:18.600Z,86.60
2022-08-17T07:07:07.229Z,80.20
2022-08-17T07:09:37.917Z,77.20
2022-08-17T07:12:28.847Z,81.20
2022-08-17T07:15:21.265Z,84.00
2022-08-17T07:17:49.946Z,85.30
2022-08-17T07:20:21.918Z,86.20
2022-08-17T07:23:00.663Z,87.00
2022-08-17T07:25:30.121Z,88.00
2022-08-17T07:28:01.153Z,88.60
2022-08-17T07:30:37.183Z,89.10
2022-08-17T07:33:23.060Z,89.60
2022-08-17T07:35:51.975Z,90.10
2022-08-17T07:38:25.664Z,87.70
2022-08-17T07:40:58.096Z,81.80
2022-08-17T07:43:32.733Z,78.40
2022-08-17T07:46:04.003Z,76.70
2022-08-17T07:48:38.577Z,81.60
2022-08-17T07:51:30.077Z,83.80
2022-08-17T07:54:14.362Z,85.00
2022-08-17T07:57:27.987Z,85.80
2022-08-17T08:00:01.493Z,86.70
2022-08-17T08:02:44.305Z,87.40
2022-08-17T08:05:32.868Z,88.10
2022-08-17T08:08:30.859Z,88.80
2022-08-17T08:11:07.596Z,89.10
2022-08-17T08:13:39.221Z,89.70
2022-08-17T08:16:25.123Z,89.90
2022-08-17T08:19:01.888Z,90.20
2022-08-17T08:21:46.178Z,84.00
2022-08-17T08:24:23.308Z,79.60
2022-08-17T08:27:11.278Z,77.00
2022-08-17T08:30:09.478Z,80.50
2022-08-17T08:33:11.977Z,83.20
2022-08-17T08:35:54.982Z,84.70
2022-08-17T08:38:35.393Z,85.80
2022-08-17T08:41:22.005Z,86.50
2022-08-17T08:44:05.442Z,87.30
2022-08-17T08:46:55.727Z,87.90
2022-08-17T08:50:37.071Z,88.30
2022-08-17T08:53:36.438Z,89.00
2022-08-17T08:56:29.693Z,89.50
2022-08-17T08:59:10.527Z,90.00
2022-08-17T09:02:07.740Z,90.00
2022-08-17T09:05:13.298Z,82.20
2022-08-17T09:07:57.305Z,78.40
2022-08-17T09:10:49.110Z,76.60
2022-08-17T09:13:46.425Z,81.00
2022-08-17T09:17:01.150Z,83.80
2022-08-17T09:19:47.706Z,85.20
2022-08-17T09:22:36.395Z,86.20
2022-08-17T09:25:16.293Z,87.00
2022-08-17T09:28:00.490Z,87.80
2022-08-17T09:30:40.998Z,88.60
2022-08-17T09:33:12.618Z,89.00
2022-08-17T09:35:54.464Z,89.50
2022-08-17T09:38:32.486Z,90.00
2022-08-17T09:41:16.069Z,90.10
2022-08-17T09:43:55.631Z,83.00
2022-08-17T09:46:30.942Z,79.50
2022-08-17T09:49:11.201Z,77.20
2022-08-17T09:51:45.671Z,82.20
2022-08-17T09:54:39.615Z,84.70
2022-08-17T09:57:35.825Z,85.60
2022-08-17T10:00:04.257Z,86.30
2022-08-17T10:02:55.160Z,87.00
2022-08-17T10:05:44.191Z,87.50
2022-08-17T10:08:21.768Z,88.40
2022-08-17T10:10:57.031Z,89.10
2022-08-17T10:13:38.827Z,89.40
2022-08-17T10:16:13.510Z,89.70
2022-08-17T10:19:03.187Z,89.90
2022-08-17T10:21:34.667Z,90.10
2022-08-17T10:24:34.488Z,83.30
2022-08-17T10:27:08.159Z,80.10
2022-08-17T10:29:48.992Z,77.20
2022-08-17T10:32:46.903Z,76.80
2022-08-17T10:35:50.580Z,81.70
2022-08-17T10:38:43.802Z,83.50
2022-08-17T10:41:33.862Z,84.60
2022-08-17T10:44:38.860Z,85.70
2022-08-17T10:47:13.293Z,86.50
2022-08-17T10:49:48.081Z,87.40
2022-08-17T10:52:42.562Z,88.20
2022-08-17T10:55:19.206Z,88.60
2022-08-17T10:57:50.145Z,89.10
2022-08-17T11:00:27.884Z,89.40
2022-08-17T11:02:58.501Z,89.80
2022-08-17T11:05:42.920Z,90.00
2022-08-17T11:08:50.824Z,84.40
2022-08-17T11:11:25.325Z,79.10
2022-08-17T11:14:06.214Z,76.70
2022-08-17T11:16:44.329Z,79.90
2022-08-17T11:19:40.303Z,84.00
2022-08-17T11:22:17.827Z,84.80
2022-08-17T11:24:56.876Z,85.80
2022-08-17T11:27:35.123Z,86.70
2022-08-17T11:30:46.196Z,87.30
2022-08-17T11:33:32.889Z,87.90
2022-08-17T11:36:10.124Z,88.60
2022-08-17T11:39:17.737Z,88.50
2022-08-17T11:41:56.535Z,89.10
2022-08-17T11:44:33.981Z,90.00
2022-08-17T11:47:20.302Z,88.20
2022-08-17T11:50:13.408Z,81.10
2022-08-17T11:52:47.922Z,78.70
2022-08-17T11:55:36.403Z,76.30
2022-08-17T11:58:31.450Z,79.80
2022-08-17T12:01:01.381Z,83.40
2022-08-17T12:03:32.602Z,85.40
2022-08-17T12:06:23.375Z,85.70
2022-08-17T12:09:18.007Z,86.50
2022-08-17T12:12:13.838Z,87.40
2022-08-17T12:17:40.891Z,88.60
2022-08-17T12:20:31.946Z,89.20
2022-08-17T12:23:15.778Z,89.50
2022-08-17T12:25:59.872Z,84.40
2022-08-17T12:28:34.721Z,78.80
2022-08-17T12:31:12.363Z,76.70
2022-08-17T12:33:45.971Z,75.60
2022-08-17T12:36:17.966Z,80.30
2022-08-17T12:38:57.651Z,83.40
2022-08-17T12:41:39.930Z,84.30
2022-08-17T12:44:17.092Z,85.60
2022-08-17T12:46:54.058Z,86.40
2022-08-17T12:49:37.616Z,87.30
2022-08-17T12:52:23.561Z,87.90
2022-08-17T12:55:24.617Z,88.60
2022-08-17T12:57:57.297Z,84.40
2022-08-17T13:00:32.494Z,79.00
2022-08-17T13:03:20.016Z,76.90
2022-08-17T13:06:07.542Z,75.40
2022-08-17T13:08:39.385Z,76.80
2022-08-17T13:11:15.758Z,80.70
2022-08-17T13:13:47.450Z,82.90
2022-08-17T13:16:15.773Z,84.10
2022-08-17T13:18:48.362Z,85.20
2022-08-17T13:21:19.688Z,85.70
2022-08-17T13:24:02.045Z,86.80
2022-08-17T13:26:49.743Z,87.70
2022-08-17T13:29:31.971Z,87.10
2022-08-17T13:32:12.906Z,79.60
2022-08-17T13:35:08.326Z,76.40
2022-08-17T13:37:37.637Z,74.50
2022-08-17T13:40:12.038Z,73.00
2022-08-17T13:42:52.407Z,75.70
2022-08-17T13:45:35.072Z,79.30
2022-08-17T13:48:17.046Z,82.40
2022-08-17T13:50:57.467Z,83.90
2022-08-17T13:53:31.198Z,85.20
2022-08-17T13:56:04.515Z,86.00
2022-08-17T13:58:38.820Z,86.70
2022-08-17T14:01:35.761Z,87.50
2022-08-17T14:04:10.830Z,86.20
2022-08-17T14:07:03.409Z,78.90
2022-08-17T14:09:41.886Z,76.00
2022-08-17T14:12:13.998Z,74.10
2022-08-17T14:14:43.388Z,73.90
2022-08-17T14:17:12.690Z,77.70
2022-08-17T14:19:41.177Z,80.40
2022-08-17T14:22:26.844Z,81.80
2022-08-17T14:24:55.373Z,83.10
2022-08-17T14:27:23.678Z,84.40
2022-08-17T14:29:52.247Z,85.20
2022-08-17T14:32:21.552Z,86.00
2022-08-17T14:34:50.313Z,86.90
2022-08-17T14:37:21.029Z,80.40
2022-08-17T14:39:49.551Z,76.40
2022-08-17T14:42:18.049Z,74.40
2022-08-17T14:44:46.591Z,72.70
2022-08-17T14:47:15.042Z,75.10
2022-08-17T14:49:43.739Z,78.90
2022-08-17T14:52:18.277Z,80.70
2022-08-17T14:54:46.794Z,82.20
2022-08-17T14:57:33.780Z,83.20
2022-08-17T15:00:05.349Z,84.00
2022-08-17T15:02:50.741Z,85.50
2022-08-17T15:05:20.916Z,83.50
2022-08-17T15:07:49.813Z,77.30
2022-08-17T15:10:18.347Z,74.50
2022-08-17T15:12:47.282Z,72.90
2022-08-17T15:15:17.655Z,71.40
2022-08-17T15:17:46.819Z,70.80
2022-08-17T15:20:19.179Z,74.90
2022-08-17T15:22:49.309Z,78.40
2022-08-17T15:25:19.968Z,79.90
2022-08-17T15:27:49.194Z,81.50
2022-08-17T15:30:18.143Z,82.90
2022-08-17T15:32:51.282Z,84.00
2022-08-17T15:35:27.759Z,84.50
2022-08-17T15:38:11.282Z,82.70
2022-08-17T15:40:44.437Z,76.50
2022-08-17T15:43:26.430Z,73.80
2022-08-17T15:46:11.376Z,72.30
2022-08-17T15:48:43.086Z,70.70
2022-08-17T15:51:27.392Z,71.40
2022-08-17T15:53:58.478Z,75.80
2022-08-17T15:56:27.733Z,78.80
2022-08-17T15:58:56.374Z,80.80
2022-08-17T16:02:22.382Z,82.10
2022-08-17T16:04:30.337Z,83.30
2022-08-17T16:07:00.928Z,83.90
2022-08-17T16:09:29.461Z,85.30
2022-08-17T16:11:57.959Z,79.50
2022-08-17T16:14:32.342Z,75.60
2022-08-17T16:17:04.720Z,73.10
2022-08-17T16:19:33.978Z,72.10
2022-08-17T16:22:02.780Z,71.90
2022-08-17T16:24:31.320Z,75.90
2022-08-17T16:26:59.645Z,79.30
2022-08-17T16:29:28.555Z,81.00
2022-08-17T16:31:58.003Z,81.90
2022-08-17T16:34:26.344Z,83.00
2022-08-17T16:36:56.476Z,84.00
2022-08-17T16:39:29.395Z,85.00
2022-08-17T16:41:58.215Z,80.50
2022-08-17T16:44:27.291Z,75.80
2022-08-17T16:46:55.894Z,73.50
2022-08-17T16:49:33.632Z,71.80
2022-08-17T16:52:09.368Z,72.20
2022-08-17T16:54:44.496Z,76.40
2022-08-17T16:57:14.831Z,78.80
2022-08-17T16:59:47.488Z,80.40
2022-08-17T17:02:25.499Z,81.60
2022-08-17T17:05:10.033Z,83.00
2022-08-17T17:08:02.688Z,84.10
2022-08-17T17:10:34.150Z,78.40
2022-08-17T17:13:04.610Z,74.40
2022-08-17T17:15:52.751Z,72.60
2022-08-17T17:18:26.676Z,71.00
2022-08-17T17:20:57.860Z,69.40
2022-08-17T17:24:00.596Z,72.30
2022-08-17T17:26:53.650Z,76.90
2022-08-17T17:29:54.347Z,79.60
2022-08-17T17:32:31.828Z,80.60
2022-08-17T17:35:36.040Z,82.00
2022-08-17T17:38:12.790Z,83.30
2022-08-17T17:40:48.775Z,84.30
2022-08-17T17:43:38.347Z,82.60
2022-08-17T17:46:36.587Z,75.70
2022-08-17T17:49:05.673Z,72.40
2022-08-17T17:52:07.197Z,70.80
2022-08-17T17:54:45.501Z,71.70
2022-08-17T17:57:55.458Z,76.60
2022-08-17T18:00:30.341Z,79.20
2022-08-17T18:03:23.653Z,80.80
2022-08-17T18:05:54.732Z,81.80
2022-08-17T18:08:43.760Z,82.90
2022-08-17T18:12:01.574Z,83.50
2022-08-17T18:14:58.339Z,84.40
2022-08-17T18:17:26.931Z,78.60
2022-08-17T18:19:56.394Z,73.80
2022-08-17T18:22:25.932Z,71.60
2022-08-17T18:24:56.184Z,69.80
2022-08-17T18:27:53.730Z,72.60
2022-08-17T18:30:22.084Z,76.10
2022-08-17T18:32:50.447Z,78.10
2022-08-17T18:35:21.627Z,79.50
2022-08-17T18:37:53.000Z,80.50
2022-08-17T18:40:36.512Z,81.30
2022-08-17T18:43:12.774Z,82.10
2022-08-17T18:45:48.538Z,82.90
2022-08-17T18:48:23.150Z,83.90
2022-08-17T18:50:53.516Z,79.50
2022-08-17T18:53:30.392Z,73.80
2022-08-17T18:56:41.769Z,71.20
2022-08-17T18:59:28.418Z,69.20
2022-08-17T19:05:07.998Z,77.30
2022-08-17T19:07:41.455Z,79.70
2022-08-17T19:10:24.687Z,81.20
2022-08-17T19:13:01.985Z,82.40
2022-08-17T19:16:11.727Z,83.40
2022-08-17T19:19:05.875Z,84.20
2022-08-17T19:21:49.825Z,78.50
2022-08-17T19:24:25.460Z,72.60
2022-08-17T19:27:12.036Z,70.00
2022-08-17T19:29:53.803Z,67.80
2022-08-17T19:32:27.031Z,67.50
2022-08-17T19:34:56.874Z,72.30
2022-08-17T19:37:52.494Z,74.30
2022-08-17T19:40:56.445Z,75.40
2022-08-17T19:43:59.030Z,76.60
2022-08-17T19:47:06.342Z,77.80
2022-08-17T19:49:42.641Z,78.60
2022-08-17T19:52:27.013Z,79.40
2022-08-17T19:55:28.643Z,79.70
2022-08-17T19:57:56.979Z,80.50
2022-08-17T20:00:25.787Z,81.10
2022-08-17T20:02:57.031Z,79.70
2022-08-17T20:05:54.677Z,72.50
2022-08-17T20:08:32.414Z,69.40
2022-08-17T20:11:08.118Z,66.80
2022-08-17T20:13:52.788Z,70.20
2022-08-17T20:16:21.340Z,73.60
2022-08-17T20:18:53.180Z,75.00
2022-08-17T20:21:46.099Z,75.90
2022-08-17T20:24:29.062Z,76.90
2022-08-17T20:27:15.152Z,77.80
2022-08-17T20:30:31.863Z,79.10
2022-08-17T20:33:02.192Z,79.10
2022-08-17T20:35:40.181Z,79.80
2022-08-17T20:38:29.876Z,80.60
2022-08-17T20:40:58.274Z,81.00
2022-08-17T20:43:35.583Z,81.70
2022-08-17T20:46:42.571Z,76.20
2022-08-17T20:49:23.547Z,71.10
2022-08-17T20:52:11.389Z,68.20
2022-08-17T20:54:47.555Z,69.30
2022-08-17T20:57:34.107Z,73.40
2022-08-17T21:00:07.319Z,75.40
2022-08-17T21:02:35.636Z,76.60
2022-08-17T21:05:30.206Z,77.50
2022-08-17T21:08:20.688Z,78.30
2022-08-17T21:10:49.174Z,79.00
2022-08-17T21:13:28.222Z,80.00
2022-08-17T21:16:00.008Z,80.40
2022-08-17T21:18:37.628Z,80.90
2022-08-17T21:21:27.934Z,81.60
2022-08-17T21:24:13.972Z,82.00
2022-08-17T21:27:32.582Z,77.20
2022-08-17T21:30:09.032Z,71.10
2022-08-17T21:32:42.150Z,67.90
2022-08-17T21:35:29.337Z,68.80
2022-08-17T21:38:03.072Z,73.50
2022-08-17T21:40:33.803Z,75.10
2022-08-17T21:43:25.671Z,76.80
2022-08-17T21:46:07.360Z,77.80
2022-08-17T21:48:45.419Z,78.70
2022-08-17T21:51:28.365Z,79.30
2022-08-17T21:54:03.700Z,80.00
2022-08-17T21:56:39.385Z,80.70
2022-08-17T21:59:28.184Z,81.30
2022-08-17T22:01:59.646Z,81.70
2022-08-17T22:04:35.585Z,73.90
2022-08-17T22:07:07.789Z,70.50
2022-08-17T22:09:44.531Z,68.30
2022-08-17T22:12:18.079Z,67.50
2022-08-17T22:15:08.233Z,71.90
2022-08-17T22:17:37.877Z,74.40
2022-08-17T22:20:20.020Z,75.80
2022-08-17T22:22:51.475Z,77.20
2022-08-17T22:25:24.717Z,78.30
2022-08-17T22:27:56.874Z,79.30
2022-08-17T22:30:48.349Z,80.10
2022-08-17T22:33:37.535Z,80.50
2022-08-17T22:36:24.341Z,81.30
2022-08-17T22:39:09.256Z,81.70
2022-08-17T22:41:55.855Z,82.30
2022-08-17T22:44:32.590Z,82.00
2022-08-17T22:47:03.996Z,73.80
2022-08-17T22:49:53.834Z,70.70
2022-08-17T22:52:36.647Z,68.50
2022-08-17T22:55:18.996Z,68.90
2022-08-17T22:57:50.763Z,73.50
2022-08-17T23:00:45.912Z,74.90
2022-08-17T23:03:23.292Z,76.40
2022-08-17T23:06:04.207Z,77.40
2022-08-17T23:08:33.530Z,78.20
2022-08-17T23:11:02.116Z,79.10
2022-08-17T23:13:30.847Z,79.90
2022-08-17T23:15:59.787Z,80.40
2022-08-17T23:18:27.735Z,81.00
2022-08-17T23:20:56.152Z,81.40
2022-08-17T23:23:24.466Z,81.90
2022-08-17T23:25:53.022Z,79.20
2022-08-17T23:28:21.459Z,72.80
2022-08-17T23:30:50.014Z,69.90
2022-08-17T23:33:33.715Z,67.90
2022-08-17T23:36:02.505Z,70.70
2022-08-17T23:38:31.659Z,74.20
2022-08-17T23:41:11.467Z,75.50
2022-08-17T23:43:40.889Z,76.90
2022-08-17T23:46:09.348Z,77.90
2022-08-17T23:48:37.785Z,79.00
2022-08-17T23:51:15.614Z,79.60
2022-08-17T23:53:50.560Z,80.40
2022-08-17T23:56:18.941Z,81.00
2022-08-17T23:58:47.299Z,81.60
